createdAt,value
2023-05-11T00:00:16.507Z,7.70
2023-05-11T00:01:16.287Z,7.80
2023-05-11T00:02:16.319Z,7.90
2023-05-11T00:03:16.392Z,7.20
2023-05-11T00:04:16.266Z,6.40
2023-05-11T00:05:16.239Z,7.30
2023-05-11T00:06:16.230Z,7.80
2023-05-11T00:07:16.222Z,7.50
2023-05-11T00:08:16.990Z,8.10
2023-05-11T00:09:16.206Z,7.80
2023-05-11T00:10:16.474Z,7.20
2023-05-11T00:11:16.178Z,7.10
2023-05-11T00:12:16.190Z,7.40
2023-05-11T00:13:16.181Z,7.60
2023-05-11T00:14:16.147Z,7.30
2023-05-11T00:15:16.154Z,7.00
2023-05-11T00:16:16.161Z,6.10
2023-05-11T00:17:16.137Z,5.80
2023-05-11T00:18:16.091Z,6.60
2023-05-11T00:19:16.534Z,7.30
2023-05-11T00:20:16.342Z,6.70
2023-05-11T00:21:16.074Z,6.00
2023-05-11T00:22:16.066Z,6.40
2023-05-11T00:23:16.040Z,6.70
2023-05-11T00:24:16.027Z,7.50
2023-05-11T00:25:16.020Z,7.20
2023-05-11T00:26:16.032Z,7.50
2023-05-11T00:27:16.011Z,7.40
2023-05-11T00:28:15.986Z,7.30
2023-05-11T00:29:15.973Z,7.70
2023-05-11T00:30:16.149Z,6.90
2023-05-11T00:31:15.993Z,7.10
2023-05-11T00:32:15.936Z,6.70
2023-05-11T00:33:15.926Z,7.60
2023-05-11T00:34:15.908Z,7.80
2023-05-11T00:35:15.942Z,7.50
2023-05-11T00:36:15.915Z,7.50
2023-05-11T00:37:15.878Z,7.20
2023-05-11T00:38:15.866Z,8.10
2023-05-11T00:39:15.869Z,8.10
2023-05-11T00:40:16.090Z,8.30
2023-05-11T00:41:15.840Z,8.00
2023-05-11T00:42:15.830Z,8.90
2023-05-11T00:43:15.827Z,8.00
2023-05-11T00:44:15.800Z,8.10
2023-05-11T00:45:15.810Z,8.40
2023-05-11T00:46:15.829Z,7.20
2023-05-11T00:47:15.789Z,7.30
2023-05-11T00:48:15.764Z,7.10
2023-05-11T00:49:15.761Z,7.60
2023-05-11T00:50:15.939Z,7.80
2023-05-11T00:51:15.741Z,7.50
2023-05-11T00:52:15.737Z,8.10
2023-05-11T00:53:15.696Z,7.00
2023-05-11T00:54:15.725Z,7.10
2023-05-11T00:55:15.673Z,6.40
2023-05-11T00:56:15.660Z,6.80
2023-05-11T00:57:15.655Z,6.80
2023-05-11T00:58:15.647Z,7.50
2023-05-11T00:59:15.640Z,7.20
2023-05-11T01:00:15.804Z,8.00
2023-05-11T01:01:15.661Z,7.70
2023-05-11T01:02:15.611Z,7.70
2023-05-11T01:03:15.677Z,8.30
2023-05-11T01:04:15.606Z,7.60
2023-05-11T01:05:15.560Z,7.70
2023-05-11T01:06:15.556Z,8.00
2023-05-11T01:07:15.563Z,7.80
2023-05-11T01:08:15.553Z,8.40
2023-05-11T01:09:15.522Z,9.30
2023-05-11T01:10:15.615Z,9.10
2023-05-11T01:11:15.527Z,8.40
2023-05-11T01:12:15.513Z,10.30
2023-05-11T01:13:15.490Z,10.60
2023-05-11T01:14:15.463Z,9.00
2023-05-11T01:15:15.462Z,10.00
2023-05-11T01:16:15.503Z,10.70
2023-05-11T01:17:15.448Z,9.90
2023-05-11T01:18:15.443Z,10.00
2023-05-11T01:19:15.410Z,10.60
2023-05-11T01:20:15.399Z,10.50
2023-05-11T01:21:15.417Z,10.90
2023-05-11T01:22:15.405Z,8.10
2023-05-11T01:23:15.397Z,8.60
2023-05-11T01:24:15.364Z,8.90
2023-05-11T01:25:15.343Z,8.10
2023-05-11T01:26:15.335Z,7.40
2023-05-11T01:27:15.334Z,8.40
2023-05-11T01:28:15.322Z,8.30
2023-05-11T01:29:15.304Z,8.10
2023-05-11T01:30:15.391Z,7.60
2023-05-11T01:31:15.300Z,8.30
2023-05-11T01:32:15.289Z,8.30
2023-05-11T01:33:15.314Z,8.50
2023-05-11T01:34:15.248Z,7.70
2023-05-11T01:35:15.239Z,8.20
2023-05-11T01:36:15.271Z,8.10
2023-05-11T01:37:15.234Z,7.90
2023-05-11T01:38:15.201Z,8.10
2023-05-11T01:39:15.223Z,8.20
2023-05-11T01:40:15.257Z,8.50
2023-05-11T01:41:15.184Z,8.00
2023-05-11T01:42:15.154Z,7.90
2023-05-11T01:43:15.147Z,8.70
2023-05-11T01:44:15.132Z,9.00
2023-05-11T01:45:15.139Z,8.60
2023-05-11T01:46:25.056Z,8.10
2023-05-11T01:47:15.097Z,8.90
2023-05-11T01:48:15.090Z,8.30
2023-05-11T01:49:15.075Z,8.60
2023-05-11T01:50:15.087Z,8.10
2023-05-11T01:51:15.053Z,8.10
2023-05-11T01:52:15.047Z,7.90
2023-05-11T01:53:15.029Z,8.10
2023-05-11T01:54:15.039Z,7.10
2023-05-11T01:55:15.435Z,7.90
2023-05-11T01:56:14.997Z,7.90
2023-05-11T01:57:14.989Z,7.60
2023-05-11T01:58:14.974Z,7.10
2023-05-11T01:59:14.979Z,7.70
2023-05-11T02:00:14.993Z,7.50
2023-05-11T02:01:15.011Z,8.10
2023-05-11T02:02:14.968Z,7.40
2023-05-11T02:03:14.978Z,6.90
2023-05-11T02:04:14.925Z,8.80
2023-05-11T02:05:14.891Z,8.50
2023-05-11T02:06:14.888Z,7.80
2023-05-11T02:07:14.871Z,8.20
2023-05-11T02:08:14.860Z,8.50
2023-05-11T02:09:15.201Z,8.80
2023-05-11T02:10:14.843Z,8.00
2023-05-11T02:11:14.846Z,9.40
2023-05-11T02:12:14.818Z,7.70
2023-05-11T02:13:14.818Z,8.20
2023-05-11T02:14:14.806Z,8.40
2023-05-11T02:15:14.786Z,7.60
2023-05-11T02:16:14.846Z,8.00
2023-05-11T02:17:14.763Z,8.60
2023-05-11T02:18:14.772Z,8.50
2023-05-11T02:19:14.746Z,8.10
2023-05-11T02:20:14.725Z,7.30
2023-05-11T02:21:14.718Z,8.00
2023-05-11T02:22:14.725Z,7.70
2023-05-11T02:23:14.709Z,8.30
2023-05-11T02:24:14.681Z,9.40
2023-05-11T02:25:14.690Z,8.00
2023-05-11T02:26:14.666Z,9.30
2023-05-11T02:27:14.688Z,8.20
2023-05-11T02:28:14.655Z,7.70
2023-05-11T02:29:14.632Z,7.90
2023-05-11T02:30:14.626Z,8.40
2023-05-11T02:31:14.636Z,9.00
2023-05-11T02:32:14.619Z,7.80
2023-05-11T02:33:14.581Z,8.80
2023-05-11T02:34:14.570Z,8.90
2023-05-11T02:35:14.560Z,8.60
2023-05-11T02:36:14.562Z,8.60
2023-05-11T02:37:14.560Z,8.80
2023-05-11T02:38:14.533Z,9.00
2023-05-11T02:39:14.518Z,8.10
2023-05-11T02:40:14.508Z,9.10
2023-05-11T02:41:14.512Z,8.20
2023-05-11T02:42:14.507Z,7.70
2023-05-11T02:43:14.492Z,8.70
2023-05-11T02:44:14.461Z,8.90
2023-05-11T02:45:14.449Z,9.40
2023-05-11T02:46:14.471Z,8.50
2023-05-11T02:47:14.424Z,9.00
2023-05-11T02:48:14.415Z,9.20
2023-05-11T02:49:14.414Z,8.00
2023-05-11T02:50:14.394Z,8.90
2023-05-11T02:51:14.409Z,8.90
2023-05-11T02:52:14.377Z,9.10
2023-05-11T02:53:14.366Z,8.10
2023-05-11T02:54:14.354Z,8.40
2023-05-11T02:55:14.360Z,9.10
2023-05-11T02:56:14.359Z,9.10
2023-05-11T02:57:14.322Z,9.00
2023-05-11T02:58:14.332Z,8.90
2023-05-11T02:59:14.309Z,8.20
2023-05-11T03:00:14.304Z,9.00
2023-05-11T03:01:14.357Z,7.70
2023-05-11T03:02:14.306Z,7.90
2023-05-11T03:03:14.374Z,8.50
2023-05-11T03:04:14.237Z,8.60
2023-05-11T03:05:14.248Z,9.40
2023-05-11T03:06:14.224Z,9.10
2023-05-11T03:07:14.212Z,9.00
2023-05-11T03:08:14.189Z,8.40
2023-05-11T03:09:14.229Z,8.40
2023-05-11T03:10:14.184Z,9.20
2023-05-11T03:11:14.164Z,10.10
2023-05-11T03:12:14.148Z,10.10
2023-05-11T03:13:14.142Z,9.20
2023-05-11T03:14:14.160Z,9.70
2023-05-11T03:15:14.138Z,9.70
2023-05-11T03:16:14.164Z,9.20
2023-05-11T03:17:14.103Z,9.50
2023-05-11T03:18:14.087Z,11.00
2023-05-11T03:19:14.086Z,11.90
2023-05-11T03:20:14.061Z,11.50
2023-05-11T03:21:14.047Z,10.40
2023-05-11T03:22:14.042Z,10.10
2023-05-11T03:23:14.052Z,10.60
2023-05-11T03:24:14.035Z,11.40
2023-05-11T03:25:14.005Z,11.00
2023-05-11T03:26:13.996Z,10.60
2023-05-11T03:27:13.987Z,12.30
2023-05-11T03:28:13.998Z,12.90
2023-05-11T03:29:13.972Z,12.30
2023-05-11T03:30:13.961Z,13.30
2023-05-11T03:31:13.972Z,12.10
2023-05-11T03:32:13.978Z,11.50
2023-05-11T03:33:14.040Z,13.00
2023-05-11T03:34:13.908Z,13.50
2023-05-11T03:35:13.908Z,12.60
2023-05-11T03:36:13.894Z,11.70
2023-05-11T03:37:13.896Z,12.30
2023-05-11T03:38:13.906Z,11.50
2023-05-11T03:39:13.860Z,10.30
2023-05-11T03:40:13.845Z,14.10
2023-05-11T03:41:13.849Z,13.40
2023-05-11T03:42:13.850Z,12.80
2023-05-11T03:43:13.809Z,13.20
2023-05-11T03:44:13.809Z,13.60
2023-05-11T03:45:13.790Z,13.30
2023-05-11T03:46:13.842Z,13.50
2023-05-11T03:47:13.797Z,13.00
2023-05-11T03:48:13.753Z,13.00
2023-05-11T03:49:14.018Z,13.70
2023-05-11T03:50:13.750Z,13.70
2023-05-11T03:51:13.735Z,11.80
2023-05-11T03:52:13.941Z,14.40
2023-05-11T03:53:13.746Z,15.60
2023-05-11T03:54:13.684Z,14.70
2023-05-11T03:55:13.676Z,13.60
2023-05-11T03:56:13.763Z,12.80
2023-05-11T03:57:13.653Z,13.20
2023-05-11T03:58:13.732Z,15.10
2023-05-11T03:59:13.635Z,13.60
2023-05-11T04:00:13.614Z,14.20
2023-05-11T04:01:13.690Z,16.40
2023-05-11T04:02:13.668Z,14.80
2023-05-11T04:03:13.681Z,15.00
2023-05-11T04:04:13.637Z,14.20
2023-05-11T04:05:13.585Z,14.80
2023-05-11T04:06:13.650Z,12.70
2023-05-11T04:07:13.587Z,13.70
2023-05-11T04:08:13.528Z,12.20
2023-05-11T04:09:13.516Z,11.70
2023-05-11T04:10:13.520Z,13.90
2023-05-11T04:11:13.489Z,13.70
2023-05-11T04:12:13.490Z,14.40
2023-05-11T04:13:13.476Z,13.80
2023-05-11T04:14:13.470Z,13.20
2023-05-11T04:15:13.461Z,13.20
2023-05-11T04:16:13.480Z,14.30
2023-05-11T04:17:13.436Z,15.50
2023-05-11T04:18:13.432Z,13.90
2023-05-11T04:19:13.445Z,14.40
2023-05-11T04:20:13.768Z,13.70
2023-05-11T04:21:13.386Z,15.40
2023-05-11T04:22:13.376Z,15.50
2023-05-11T04:23:13.372Z,16.50
2023-05-11T04:24:13.365Z,14.70
2023-05-11T04:25:13.346Z,15.00
2023-05-11T04:26:13.332Z,15.60
2023-05-11T04:27:13.330Z,14.80
2023-05-11T04:28:13.305Z,15.60
2023-05-11T04:29:13.316Z,16.00
2023-05-11T04:30:13.293Z,14.30
2023-05-11T04:31:13.329Z,15.50
2023-05-11T04:32:13.271Z,15.30
2023-05-11T04:33:13.287Z,16.00
2023-05-11T04:34:13.256Z,15.30
2023-05-11T04:35:13.245Z,14.10
2023-05-11T04:36:13.216Z,12.70
2023-05-11T04:37:13.219Z,14.60
2023-05-11T04:38:13.209Z,13.40
2023-05-11T04:39:13.196Z,14.50
2023-05-11T04:40:13.171Z,13.30
2023-05-11T04:41:13.160Z,14.00
2023-05-11T04:42:13.143Z,13.80
2023-05-11T04:43:13.154Z,13.80
2023-05-11T04:44:13.129Z,13.50
2023-05-11T04:45:13.113Z,13.00
2023-05-11T04:46:13.207Z,14.50
2023-05-11T04:47:13.107Z,14.30
2023-05-11T04:48:13.160Z,13.00
2023-05-11T04:49:13.071Z,13.70
2023-05-11T04:50:13.069Z,12.00
2023-05-11T04:51:13.069Z,10.60
2023-05-11T04:52:13.072Z,10.00
2023-05-11T04:53:13.061Z,10.00
2023-05-11T04:54:13.015Z,9.90
2023-05-11T04:55:13.006Z,10.60
2023-05-11T04:56:13.012Z,11.00
2023-05-11T04:57:12.994Z,11.10
2023-05-11T04:58:12.988Z,12.80
2023-05-11T04:59:13.001Z,12.80
2023-05-11T05:00:12.975Z,12.30
2023-05-11T05:01:12.985Z,10.10
2023-05-11T05:02:12.949Z,10.40
2023-05-11T05:03:12.917Z,10.60
2023-05-11T05:04:12.972Z,10.70
2023-05-11T05:05:12.893Z,10.40
2023-05-11T05:06:12.903Z,10.10
2023-05-11T05:07:12.891Z,9.70
2023-05-11T05:08:12.854Z,9.30
2023-05-11T05:09:12.879Z,9.80
2023-05-11T05:10:12.862Z,10.40
2023-05-11T05:11:12.851Z,11.40
2023-05-11T05:12:12.822Z,10.00
2023-05-11T05:13:12.814Z,11.80
2023-05-11T05:14:12.818Z,12.40
2023-05-11T05:15:12.821Z,12.00
2023-05-11T05:16:12.816Z,12.40
2023-05-11T05:17:12.785Z,12.40
2023-05-11T05:18:12.783Z,12.70
2023-05-11T05:19:12.810Z,15.40
2023-05-11T05:20:12.788Z,14.30
2023-05-11T05:21:12.722Z,13.60
2023-05-11T05:22:12.716Z,14.80
2023-05-11T05:23:12.714Z,14.60
2023-05-11T05:24:12.684Z,14.70
2023-05-11T05:25:12.689Z,15.20
2023-05-11T05:26:12.659Z,14.20
2023-05-11T05:27:12.661Z,14.30
2023-05-11T05:28:12.639Z,14.40
2023-05-11T05:29:12.651Z,14.40
2023-05-11T05:30:12.636Z,14.60
2023-05-11T05:31:12.693Z,13.30
2023-05-11T05:32:12.597Z,13.40
2023-05-11T05:33:12.606Z,13.60
2023-05-11T05:34:14.777Z,14.40
2023-05-11T05:35:12.563Z,13.20
2023-05-11T05:36:12.550Z,13.20
2023-05-11T05:37:12.535Z,12.80
2023-05-11T05:38:12.536Z,13.80
2023-05-11T05:39:12.604Z,13.40
2023-05-11T05:40:12.536Z,12.40
2023-05-11T05:41:12.488Z,13.10
2023-05-11T05:42:12.477Z,12.90
2023-05-11T05:43:12.497Z,12.80
2023-05-11T05:44:12.473Z,11.50
2023-05-11T05:45:14.534Z,12.00
2023-05-11T05:46:12.507Z,12.60
2023-05-11T05:47:12.423Z,12.90
2023-05-11T05:48:12.435Z,13.10
2023-05-11T05:49:12.418Z,14.10
2023-05-11T05:50:12.388Z,13.80
2023-05-11T05:51:12.423Z,13.70
2023-05-11T05:52:12.398Z,14.20
2023-05-11T05:53:12.401Z,12.60
2023-05-11T05:54:12.376Z,13.10
2023-05-11T05:55:12.362Z,13.30
2023-05-11T05:56:12.362Z,13.60
2023-05-11T05:57:13.776Z,13.90
2023-05-11T05:58:12.337Z,13.70
2023-05-11T05:59:12.334Z,14.00
2023-05-11T06:00:12.282Z,12.30
2023-05-11T06:01:12.266Z,12.60
2023-05-11T06:02:12.354Z,13.00
2023-05-11T06:03:12.336Z,12.40
2023-05-11T06:04:12.306Z,12.90
2023-05-11T06:05:12.226Z,11.80
2023-05-11T06:06:12.214Z,13.30
2023-05-11T06:07:12.219Z,12.80
2023-05-11T06:08:12.186Z,12.30
2023-05-11T06:09:12.182Z,12.80
2023-05-11T06:10:12.164Z,13.30
2023-05-11T06:11:12.197Z,12.90
2023-05-11T06:12:12.163Z,12.10
2023-05-11T06:13:12.143Z,12.40
2023-05-11T06:14:12.121Z,12.60
2023-05-11T06:15:12.120Z,12.60
2023-05-11T06:16:12.119Z,12.30
2023-05-11T06:17:12.090Z,13.50
2023-05-11T06:18:12.121Z,12.70
2023-05-11T06:19:12.129Z,11.70
2023-05-11T06:20:12.200Z,11.80
2023-05-11T06:21:12.068Z,12.30
2023-05-11T06:22:12.047Z,12.00
2023-05-11T06:23:12.035Z,11.80
2023-05-11T06:24:12.008Z,12.20
2023-05-11T06:25:12.010Z,11.20
2023-05-11T06:26:12.163Z,12.00
2023-05-11T06:27:12.008Z,11.50
2023-05-11T06:28:11.981Z,11.40
2023-05-11T06:29:11.984Z,11.30
2023-05-11T06:30:11.963Z,11.70
2023-05-11T06:31:12.021Z,11.10
2023-05-11T06:32:11.926Z,10.90
2023-05-11T06:33:11.922Z,11.40
2023-05-11T06:34:11.908Z,10.30
2023-05-11T06:35:12.185Z,10.40
2023-05-11T06:36:12.137Z,11.10
2023-05-11T06:37:11.865Z,11.30
2023-05-11T06:38:11.847Z,11.10
2023-05-11T06:39:11.852Z,11.50
2023-05-11T06:40:11.847Z,11.10
2023-05-11T06:41:11.831Z,10.90
2023-05-11T06:42:12.424Z,10.80
2023-05-11T06:43:11.849Z,10.50
2023-05-11T06:44:11.807Z,10.40
2023-05-11T06:45:11.825Z,10.50
2023-05-11T06:46:11.820Z,9.50
2023-05-11T06:47:11.764Z,9.60
2023-05-11T06:48:11.784Z,10.80
2023-05-11T06:49:11.748Z,9.00
2023-05-11T06:50:11.716Z,9.30
2023-05-11T06:51:11.709Z,9.20
2023-05-11T06:52:11.699Z,9.00
2023-05-11T06:53:11.701Z,10.20
2023-05-11T06:54:11.703Z,9.10
2023-05-11T06:55:11.670Z,10.50
2023-05-11T06:56:11.677Z,9.40
2023-05-11T06:57:13.805Z,9.60
2023-05-11T06:58:11.649Z,9.20
2023-05-11T06:59:11.725Z,9.20
2023-05-11T07:00:11.616Z,8.70
2023-05-11T07:01:11.709Z,8.30
2023-05-11T07:02:11.587Z,8.90
2023-05-11T07:03:11.650Z,9.30
2023-05-11T07:04:11.594Z,9.50
2023-05-11T07:05:11.556Z,9.50
2023-05-11T07:06:11.543Z,9.90
2023-05-11T07:07:11.532Z,10.10
2023-05-11T07:08:11.527Z,10.50
2023-05-11T07:09:11.510Z,9.90
2023-05-11T07:10:11.500Z,9.50
2023-05-11T07:11:11.481Z,9.70
2023-05-11T07:12:11.485Z,9.50
2023-05-11T07:13:11.481Z,10.40
2023-05-11T07:14:11.447Z,9.50
2023-05-11T07:15:11.459Z,10.10
2023-05-11T07:16:11.432Z,10.60
2023-05-11T07:17:11.462Z,10.70
2023-05-11T07:18:11.437Z,9.90
2023-05-11T07:19:11.490Z,10.30
2023-05-11T07:20:11.383Z,10.20
2023-05-11T07:21:11.374Z,10.20
2023-05-11T07:22:12.782Z,10.80
2023-05-11T07:23:11.347Z,10.00
2023-05-11T07:24:11.340Z,11.10
2023-05-11T07:25:11.324Z,10.60
2023-05-11T07:26:11.334Z,10.30
2023-05-11T07:27:11.340Z,10.10
2023-05-11T07:28:11.290Z,10.70
2023-05-11T07:29:11.278Z,9.70
2023-05-11T07:30:11.269Z,9.50
2023-05-11T07:31:11.354Z,9.80
2023-05-11T07:32:11.253Z,9.90
2023-05-11T07:33:11.297Z,10.50
2023-05-11T07:34:11.221Z,9.70
2023-05-11T07:35:11.220Z,9.90
2023-05-11T07:36:11.436Z,9.00
2023-05-11T07:37:11.190Z,9.10
2023-05-11T07:38:11.185Z,9.50
2023-05-11T07:39:11.162Z,9.20
2023-05-11T07:40:11.183Z,9.20
2023-05-11T07:41:12.696Z,9.30
2023-05-11T07:42:11.150Z,9.70
2023-05-11T07:43:11.126Z,8.90
2023-05-11T07:44:11.122Z,9.00
2023-05-11T07:45:11.131Z,9.10
2023-05-11T07:46:11.123Z,7.90
2023-05-11T07:47:11.103Z,8.50
2023-05-11T07:48:11.135Z,7.50
2023-05-11T07:49:18.545Z,8.20
2023-05-11T07:50:12.078Z,8.60
2023-05-11T07:51:11.033Z,9.20
2023-05-11T07:52:11.062Z,7.50
2023-05-11T07:53:11.016Z,7.90
2023-05-11T07:54:11.024Z,8.40
2023-05-11T07:55:11.002Z,7.70
2023-05-11T07:56:10.987Z,7.90
2023-05-11T07:57:10.972Z,8.50
2023-05-11T07:58:10.972Z,8.00
2023-05-11T07:59:10.957Z,7.90
2023-05-11T08:00:11.272Z,8.30
2023-05-11T08:01:10.929Z,8.20
2023-05-11T08:02:12.883Z,8.50
2023-05-11T08:03:10.979Z,8.90
2023-05-11T08:04:10.919Z,8.30
2023-05-11T08:05:10.876Z,8.70
2023-05-11T08:06:10.926Z,8.30
2023-05-11T08:07:10.856Z,8.50
2023-05-11T08:08:10.864Z,7.50
2023-05-11T08:09:10.847Z,8.00
2023-05-11T08:10:10.831Z,7.80
2023-05-11T08:11:10.808Z,7.80
2023-05-11T08:12:10.805Z,8.00
2023-05-11T08:13:10.804Z,7.90
2023-05-11T08:14:10.790Z,8.00
2023-05-11T08:15:10.767Z,8.30
2023-05-11T08:16:10.801Z,8.30
2023-05-11T08:17:10.744Z,6.90
2023-05-11T08:18:10.848Z,6.80
2023-05-11T08:19:10.801Z,7.10
2023-05-11T08:20:10.716Z,6.80
2023-05-11T08:21:10.705Z,6.50
2023-05-11T08:22:10.726Z,6.60
2023-05-11T08:23:10.710Z,7.40
2023-05-11T08:24:10.679Z,5.80
2023-05-11T08:25:10.656Z,6.70
2023-05-11T08:26:10.656Z,6.20
2023-05-11T08:27:10.674Z,6.50
2023-05-11T08:28:10.632Z,6.80
2023-05-11T08:29:10.613Z,7.30
2023-05-11T08:30:11.916Z,7.30
2023-05-11T08:31:10.751Z,8.00
2023-05-11T08:32:10.726Z,7.00
2023-05-11T08:33:29.034Z,7.40
2023-05-11T08:34:18.953Z,7.20
2023-05-11T08:35:11.661Z,7.70
2023-05-11T08:36:10.557Z,7.80
2023-05-11T08:37:10.876Z,7.20
2023-05-11T08:38:10.521Z,7.10
2023-05-11T08:39:10.509Z,7.20
2023-05-11T08:40:12.524Z,6.80
2023-05-11T08:41:10.506Z,6.90
2023-05-11T08:42:10.479Z,7.00
2023-05-11T08:43:10.457Z,6.80
2023-05-11T08:44:10.465Z,7.00
2023-05-11T08:45:10.449Z,6.90
2023-05-11T08:46:10.485Z,7.40
2023-05-11T08:47:22.648Z,6.80
2023-05-11T08:48:11.416Z,6.70
2023-05-11T08:49:10.399Z,6.80
2023-05-11T08:50:10.404Z,7.00
2023-05-11T08:51:10.435Z,6.50
2023-05-11T08:52:10.366Z,6.60
2023-05-11T08:53:10.348Z,7.30
2023-05-11T08:54:10.341Z,6.90
2023-05-11T08:55:10.344Z,7.10
2023-05-11T08:56:10.312Z,6.20
2023-05-11T08:57:10.324Z,6.10
2023-05-11T08:58:10.304Z,5.60
2023-05-11T08:59:10.275Z,5.70
2023-05-11T09:00:10.301Z,6.30
2023-05-11T09:01:10.287Z,5.60
2023-05-11T09:02:10.258Z,5.80
2023-05-11T09:03:10.298Z,6.30
2023-05-11T09:04:10.295Z,5.50
2023-05-11T09:05:10.283Z,5.10
2023-05-11T09:06:10.218Z,5.90
2023-05-11T09:07:10.223Z,6.30
2023-05-11T09:08:10.182Z,5.50
2023-05-11T09:09:10.185Z,5.70
2023-05-11T09:10:11.538Z,5.00
2023-05-11T09:11:10.148Z,6.10
2023-05-11T09:12:10.140Z,5.60
2023-05-11T09:13:10.135Z,5.30
2023-05-11T09:14:10.135Z,5.10
2023-05-11T09:15:10.116Z,5.30
2023-05-11T09:16:23.464Z,4.90
2023-05-11T09:17:11.195Z,5.30
2023-05-11T09:18:10.137Z,5.20
2023-05-11T09:19:10.091Z,5.50
2023-05-11T09:20:10.056Z,5.40
2023-05-11T09:21:10.056Z,5.00
2023-05-11T09:22:10.036Z,5.60
2023-05-11T09:23:10.040Z,4.90
2023-05-11T09:24:10.067Z,5.40
2023-05-11T09:25:09.993Z,5.20
2023-05-11T09:26:09.983Z,5.00
2023-05-11T09:27:10.009Z,5.20
2023-05-11T09:28:15.779Z,4.80
2023-05-11T09:29:10.948Z,4.70
2023-05-11T09:30:09.935Z,4.60
2023-05-11T09:31:09.972Z,4.90
2023-05-11T09:32:09.913Z,4.90
2023-05-11T09:33:09.963Z,4.90
2023-05-11T09:34:09.917Z,4.80
2023-05-11T09:35:09.888Z,4.80
2023-05-11T09:36:09.867Z,3.90
2023-05-11T09:37:09.898Z,4.10
2023-05-11T09:38:09.880Z,4.10
2023-05-11T09:39:15.362Z,4.20
2023-05-11T09:40:26.373Z,4.00
2023-05-11T09:41:10.813Z,3.90
2023-05-11T09:42:09.856Z,3.70
2023-05-11T09:43:09.808Z,4.20
2023-05-11T09:44:09.783Z,4.10
2023-05-11T09:45:09.793Z,4.10
2023-05-11T09:46:09.843Z,3.70
2023-05-11T09:47:09.801Z,3.30
2023-05-11T09:48:09.856Z,3.10
2023-05-11T09:49:09.730Z,2.70
2023-05-11T09:50:09.727Z,2.80
2023-05-11T09:51:09.731Z,2.90
2023-05-11T09:52:09.773Z,2.90
2023-05-11T09:53:09.688Z,2.70
2023-05-11T09:54:09.672Z,2.60
2023-05-11T09:55:09.689Z,2.30
2023-05-11T09:56:10.115Z,2.20
2023-05-11T09:57:09.648Z,2.60
2023-05-11T09:58:09.633Z,3.10
2023-05-11T09:59:09.627Z,3.00
2023-05-11T10:00:09.622Z,2.30
2023-05-11T10:01:09.660Z,2.10
2023-05-11T10:02:09.581Z,2.20
2023-05-11T10:03:09.760Z,2.20
2023-05-11T10:04:22.835Z,2.30
2023-05-11T10:05:10.596Z,2.30
2023-05-11T10:06:10.439Z,2.20
2023-05-11T10:07:09.535Z,2.10
2023-05-11T10:08:09.518Z,2.70
2023-05-11T10:09:09.526Z,2.20
2023-05-11T10:10:09.527Z,2.30
2023-05-11T10:11:09.509Z,2.30
2023-05-11T10:12:09.486Z,2.50
2023-05-11T10:13:09.482Z,2.50
2023-05-11T10:14:09.451Z,2.30
2023-05-11T10:15:09.465Z,2.30
2023-05-11T10:16:09.514Z,2.10
2023-05-11T10:17:09.434Z,2.10
2023-05-11T10:18:09.529Z,2.40
2023-05-11T10:19:09.669Z,2.10
2023-05-11T10:20:09.436Z,2.10
2023-05-11T10:21:09.378Z,2.00
2023-05-11T10:22:09.389Z,2.50
2023-05-11T10:23:09.370Z,2.00
2023-05-11T10:24:09.446Z,2.40
2023-05-11T10:25:09.333Z,2.20
2023-05-11T10:26:09.329Z,2.60
2023-05-11T10:27:09.381Z,2.30
2023-05-11T10:28:09.295Z,2.20
2023-05-11T10:29:09.310Z,2.60
2023-05-11T10:30:09.283Z,2.20
2023-05-11T10:31:09.265Z,2.60
2023-05-11T10:32:09.290Z,2.50
2023-05-11T10:33:09.323Z,2.40
2023-05-11T10:34:09.244Z,2.80
2023-05-11T10:35:09.218Z,2.60
2023-05-11T10:36:09.209Z,3.10
2023-05-11T10:37:09.234Z,3.30
2023-05-11T10:38:09.241Z,3.40
2023-05-11T10:39:09.188Z,2.80
2023-05-11T10:40:09.166Z,3.10
2023-05-11T10:41:09.150Z,2.80
2023-05-11T10:42:09.158Z,3.20
2023-05-11T10:43:09.165Z,3.50
2023-05-11T10:44:09.124Z,3.20
2023-05-11T10:45:09.119Z,3.10
2023-05-11T10:46:09.147Z,3.20
2023-05-11T10:47:09.088Z,3.20
2023-05-11T10:48:09.092Z,3.60
2023-05-11T10:49:09.058Z,3.60
2023-05-11T10:50:09.054Z,3.00
2023-05-11T10:51:09.046Z,3.70
2023-05-11T10:52:09.061Z,3.70
2023-05-11T10:53:09.036Z,3.60
2023-05-11T10:54:09.011Z,3.50
2023-05-11T10:55:08.997Z,3.70
2023-05-11T10:56:08.988Z,4.50
2023-05-11T10:57:08.997Z,4.60
2023-05-11T10:58:08.964Z,4.70
2023-05-11T10:59:08.971Z,4.60
2023-05-11T11:00:08.976Z,4.60
2023-05-11T11:01:09.017Z,4.70
2023-05-11T11:02:08.936Z,4.30
2023-05-11T11:03:08.919Z,4.00
2023-05-11T11:04:08.903Z,4.00
2023-05-11T11:05:08.914Z,3.80
2023-05-11T11:06:08.952Z,3.70
2023-05-11T11:07:08.870Z,4.10
2023-05-11T11:08:08.873Z,4.50
2023-05-11T11:09:08.869Z,4.00
2023-05-11T11:10:08.835Z,4.30
2023-05-11T11:11:08.830Z,4.30
2023-05-11T11:12:08.813Z,4.80
2023-05-11T11:13:08.829Z,4.70
2023-05-11T11:14:08.791Z,4.40
2023-05-11T11:15:08.875Z,5.10
2023-05-11T11:16:08.785Z,5.30
2023-05-11T11:17:08.788Z,4.90
2023-05-11T11:18:08.766Z,5.00
2023-05-11T11:19:08.842Z,4.80
2023-05-11T11:20:08.790Z,4.50
2023-05-11T11:21:08.708Z,4.40
2023-05-11T11:22:08.699Z,4.60
2023-05-11T11:23:08.682Z,4.40
2023-05-11T11:24:08.690Z,4.60
2023-05-11T11:25:08.692Z,4.70
2023-05-11T11:26:08.657Z,4.60
2023-05-11T11:27:08.650Z,4.80
2023-05-11T11:28:08.632Z,4.50
2023-05-11T11:29:08.639Z,5.00
2023-05-11T11:30:08.939Z,4.70
2023-05-11T11:31:08.663Z,4.60
2023-05-11T11:32:08.593Z,4.70
2023-05-11T11:33:08.603Z,4.60
2023-05-11T11:34:08.583Z,4.50
2023-05-11T11:35:08.555Z,4.40
2023-05-11T11:36:08.544Z,4.10
2023-05-11T11:37:08.575Z,3.50
2023-05-11T11:38:08.527Z,3.60
2023-05-11T11:39:08.535Z,3.50
2023-05-11T11:40:14.638Z,3.10
2023-05-11T11:41:09.490Z,3.00
2023-05-11T11:42:08.481Z,3.10
2023-05-11T11:43:08.483Z,3.00
2023-05-11T11:44:08.652Z,2.80
2023-05-11T11:45:08.442Z,3.10
2023-05-11T11:46:08.459Z,3.10
2023-05-11T11:47:08.440Z,3.00
2023-05-11T11:48:08.455Z,3.30
2023-05-11T11:49:08.400Z,3.50
2023-05-11T11:50:08.392Z,3.60
2023-05-11T11:51:08.497Z,3.60
2023-05-11T11:52:08.368Z,3.60
2023-05-11T11:53:08.373Z,3.60
2023-05-11T11:54:08.347Z,3.50
2023-05-11T11:55:08.329Z,3.60
2023-05-11T11:56:08.320Z,3.70
2023-05-11T11:57:08.323Z,3.90
2023-05-11T11:58:08.309Z,3.30
2023-05-11T11:59:08.286Z,3.90
2023-05-11T12:00:08.278Z,3.80
2023-05-11T12:01:08.275Z,3.90
2023-05-11T12:02:08.279Z,3.60
2023-05-11T12:03:08.352Z,3.90
2023-05-11T12:04:08.403Z,3.30
2023-05-11T12:05:08.344Z,3.30
2023-05-11T12:06:08.235Z,3.50
2023-05-11T12:07:08.229Z,3.30
2023-05-11T12:08:08.185Z,3.50
2023-05-11T12:09:08.179Z,3.40
2023-05-11T12:10:08.206Z,3.50
2023-05-11T12:11:08.164Z,3.70
2023-05-11T12:12:08.168Z,4.10
2023-05-11T12:13:08.140Z,3.70
2023-05-11T12:14:08.120Z,3.90
2023-05-11T12:15:08.103Z,4.00
2023-05-11T12:16:08.143Z,3.90
2023-05-11T12:17:08.097Z,4.00
2023-05-11T12:18:08.160Z,3.80
2023-05-11T12:19:08.159Z,3.90
2023-05-11T12:20:08.107Z,3.80
2023-05-11T12:21:08.066Z,3.50
2023-05-11T12:22:08.038Z,4.30
2023-05-11T12:23:08.018Z,4.40
2023-05-11T12:24:08.035Z,4.20
2023-05-11T12:25:08.008Z,4.30
2023-05-11T12:26:08.023Z,4.10
2023-05-11T12:27:07.983Z,3.90
2023-05-11T12:28:07.960Z,3.50
2023-05-11T12:29:07.959Z,4.20
2023-05-11T12:30:07.981Z,4.10
2023-05-11T12:31:07.942Z,3.90
2023-05-11T12:32:08.091Z,3.80
2023-05-11T12:33:07.979Z,3.90
2023-05-11T12:34:07.907Z,3.60
2023-05-11T12:35:07.929Z,3.80
2023-05-11T12:36:07.889Z,3.30
2023-05-11T12:37:07.871Z,3.90
2023-05-11T12:38:07.853Z,3.60
2023-05-11T12:39:07.853Z,3.80
2023-05-11T12:40:07.953Z,3.70
2023-05-11T12:41:07.825Z,4.10
2023-05-11T12:42:07.853Z,4.00
2023-05-11T12:43:07.800Z,3.90
2023-05-11T12:44:07.814Z,3.90
2023-05-11T12:45:07.796Z,4.00
2023-05-11T12:46:07.790Z,4.20
2023-05-11T12:47:07.760Z,3.60
2023-05-11T12:48:07.785Z,3.50
2023-05-11T12:49:07.754Z,3.40
2023-05-11T12:50:07.742Z,3.40
2023-05-11T12:51:07.743Z,3.20
2023-05-11T12:52:07.719Z,3.00
2023-05-11T12:53:07.704Z,3.10
2023-05-11T12:54:07.701Z,3.00
2023-05-11T12:55:07.671Z,2.90
2023-05-11T12:56:07.654Z,3.30
2023-05-11T12:57:07.682Z,3.00
2023-05-11T12:58:07.666Z,3.00
2023-05-11T12:59:07.626Z,2.90
2023-05-11T13:00:07.691Z,2.70
2023-05-11T13:01:07.699Z,2.80
2023-05-11T13:02:07.595Z,2.40
2023-05-11T13:03:07.846Z,2.30
2023-05-11T13:04:07.582Z,2.60
2023-05-11T13:05:07.565Z,2.20
2023-05-11T13:06:07.540Z,2.30
2023-05-11T13:07:07.563Z,2.40
2023-05-11T13:08:07.529Z,2.70
2023-05-11T13:09:07.516Z,2.70
2023-05-11T13:10:07.535Z,2.70